Seaexpressii — HO4619 — position and weather

sailwx.info

Track history (hours):
 
Tides and Currents Weather Stations Pressure Air Temp Water Temp Dewpoint Dewpoint Depression Visibility Wind Speed Wind Dir Waves Ship Positions

Seaexpressii

Last reported at 2018-Feb-25 23:30 UTC. Time now 2018-Feb-25 23:33 UTC.
Position N 26°04' W 080°08'.

Length 37 m; draft 2.1 m.

Type: Cargo ship. MMSI: 356449000.

Date/timePositionNaut miles runAvg speedWind from/ knotsBaromVisibWave heightAir tempDewpointWater temp
2018-Feb-25 23:30N 26°04' W 080°08'0 0.0
2018-Feb-25 23:01N 26°04' W 080°08'0 0.0
2018-Feb-25 22:30N 26°04' W 080°08'0 0.0
2018-Feb-25 22:00N 26°04' W 080°08'0 0.0
2018-Feb-25 21:30N 26°04' W 080°08'0 0.0
2018-Feb-25 21:00N 26°04' W 080°08'0 0.0
2018-Feb-25 20:30N 26°04' W 080°08'0 0.0
2018-Feb-25 20:00N 26°04' W 080°08'0 0.0
2018-Feb-25 19:30N 26°04' W 080°08'0 0.0
2018-Feb-25 19:01N 26°04' W 080°08'0 0.0
2018-Feb-25 18:30N 26°04' W 080°08'0 0.0
2018-Feb-25 18:00N 26°04' W 080°08'0 0.0
2018-Feb-25 17:31N 26°04' W 080°08'0 0.0
2018-Feb-25 17:00N 26°04' W 080°08'0 0.1
2018-Feb-25 16:30N 26°04' W 080°08'0 0.0
2018-Feb-25 16:00N 26°04' W 080°08'0 0.0
2018-Feb-25 15:31N 26°04' W 080°08'0 0.0
2018-Feb-25 15:00N 26°04' W 080°08'0 0.0
2018-Feb-25 14:31N 26°04' W 080°08'0 0.0
2018-Feb-25 14:00N 26°04' W 080°08'3 5.3
2018-Feb-25 13:30N 26°06' W 080°06'510.8
2018-Feb-25 13:00N 26°03' W 080°01'611.3
2018-Feb-25 12:30N 26°01' W 079°55'611.1
2018-Feb-25 12:00N 25°59' W 079°49'610.7
2018-Feb-25 11:29N 25°57' W 079°43'  
2018-Feb-22 21:51N 26°21' W 079°46'411.8
2018-Feb-22 21:30N 26°18' W 079°49'611.9
2018-Feb-22 21:00N 26°14' W 079°54'611.5
2018-Feb-22 20:30N 26°11' W 079°58'510.7
2018-Feb-22 20:00N 26°07' W 080°03'4 8.1
2018-Feb-22 19:30N 26°05' W 080°07'2 3.3
2018-Feb-22 19:00N 26°04' W 080°08'0 0.0
2018-Feb-22 18:30N 26°04' W 080°08'0 0.0
2018-Feb-22 18:00N 26°04' W 080°08'0 0.0
2018-Feb-22 17:30N 26°04' W 080°08'0 0.0
2018-Feb-22 17:00N 26°04' W 080°08'0 0.0
2018-Feb-22 16:30N 26°04' W 080°08'0 0.0
2018-Feb-22 16:00N 26°04' W 080°08'0 0.0
2018-Feb-22 15:30N 26°04' W 080°08'0 0.0
2018-Feb-22 15:00N 26°04' W 080°08'0 0.0
2018-Feb-22 14:30N 26°04' W 080°08'0 0.0
2018-Feb-22 14:01N 26°04' W 080°08'0 0.0
2018-Feb-22 13:31N 26°04' W 080°08'0 0.0
2018-Feb-22 13:00N 26°04' W 080°08'0 0.0
2018-Feb-22 12:30N 26°04' W 080°08'0 0.0
2018-Feb-22 12:01N 26°04' W 080°08'0 0.0
2018-Feb-22 11:30N 26°04' W 080°08'0 0.3
2018-Feb-22 11:01N 26°04' W 080°08'3 6.1
2018-Feb-22 10:30N 26°05' W 080°05'510.6
2018-Feb-22 10:00N 26°03' W 079°59'510.2
2018-Feb-22 09:30N 26°02' W 079°54'510.2
2018-Feb-22 09:00N 26°01' W 079°48'510.4
2018-Feb-22 08:29N 25°59' W 079°43'190 7.5
2018-Feb-21 07:09N 24°20' W 076°44'1 9.6
2018-Feb-21 06:59N 24°19' W 076°43'5 9.5
2018-Feb-21 06:30N 24°17' W 076°38'4 8.7
2018-Feb-21 06:00N 24°17' W 076°33'4 8.6
2018-Feb-21 05:30N 24°17' W 076°28'4 8.6
2018-Feb-21 05:00N 24°14' W 076°26'4 8.4
2018-Feb-21 04:30N 24°11' W 076°23'4 8.3
2018-Feb-21 04:00N 24°07' W 076°20'4 8.6
2018-Feb-21 03:30N 24°04' W 076°17'4 8.9
2018-Feb-21 03:00N 24°01' W 076°13'18 0.6
2018-Feb-19 21:51N 24°18' W 076°21'3 8.4
2018-Feb-19 21:30N 24°18' W 076°24'4 8.4
2018-Feb-19 21:00N 24°18' W 076°29'4 8.7
2018-Feb-19 20:30N 24°17' W 076°34'4 8.6
2018-Feb-19 20:00N 24°18' W 076°38'5 9.0
2018-Feb-19 19:30N 24°19' W 076°43'184 9.0
2018-Feb-18 23:11N 25°55' W 079°36'2 9.1
2018-Feb-18 22:59N 25°56' W 079°38'4 9.2
2018-Feb-18 22:30N 25°57' W 079°43'4 8.6
2018-Feb-18 22:00N 25°58' W 079°47'4 8.0
2018-Feb-18 21:30N 25°59' W 079°51'4 8.4
2018-Feb-18 21:00N 26°01' W 079°56'4 8.7
2018-Feb-18 20:30N 26°02' W 080°00'5 9.9
2018-Feb-18 20:00N 26°05' W 080°05'3 5.6
2018-Feb-18 19:31N 26°04' W 080°07'0 0.7
2018-Feb-18 19:01N 26°04' W 080°08'0 0.0
2018-Feb-18 18:30N 26°04' W 080°08'0 0.1
2018-Feb-18 18:00N 26°04' W 080°08'0 0.0
2018-Feb-18 17:30N 26°04' W 080°08'0 0.0
2018-Feb-18 17:01N 26°04' W 080°08'0 0.0
2018-Feb-18 16:30N 26°04' W 080°08'0 0.0
2018-Feb-18 16:00N 26°04' W 080°08'0 0.0
2018-Feb-18 15:30N 26°04' W 080°08'0 0.0
2018-Feb-18 15:00N 26°04' W 080°08'0 0.0
2018-Feb-18 14:31N 26°04' W 080°08'0 0.0
2018-Feb-18 14:01N 26°04' W 080°08'0 0.0
2018-Feb-18 13:30N 26°04' W 080°08'0 0.0
2018-Feb-18 13:01N 26°04' W 080°08'0 0.0
2018-Feb-18 12:30N 26°04' W 080°08'1 2.9
2018-Feb-18 12:00N 26°05' W 080°07'3 5.0
2018-Feb-18 11:30N 26°05' W 080°04'5 9.1
2018-Feb-18 11:00N 26°03' W 079°59'4 8.5
2018-Feb-18 10:30N 26°03' W 079°55'4 8.2
2018-Feb-18 10:00N 26°01' W 079°50'4 8.4
2018-Feb-18 09:30N 26°00' W 079°46'245 6.3
2018-Feb-16 18:49N 23°46' W 075°59'310.8
2018-Feb-16 18:30N 23°44' W 075°57'811.2
2018-Feb-16 17:45N 23°37' W 075°51'311.3
2018-Feb-16 17:30N 23°35' W 075°49'4 7.9
2018-Feb-16 17:00N 23°32' W 075°47'2 3.1
2018-Feb-16 16:30N 23°30' W 075°46'0 0.0
2018-Feb-16 16:00N 23°30' W 075°46'0 0.0
2018-Feb-16 15:30N 23°30' W 075°46'0 0.0
2018-Feb-16 15:00N 23°30' W 075°46'0 0.0
2018-Feb-16 14:30N 23°30' W 075°46'0 0.0
2018-Feb-16 14:00N 23°30' W 075°46'2 3.6
2018-Feb-16 13:30N 23°32' W 075°47'3 6.3
2018-Feb-16 13:00N 23°35' W 075°49'4 7.6
2018-Feb-16 12:30N 23°38' W 075°52'4 7.3
2018-Feb-16 12:00N 23°40' W 075°54'4 7.5
2018-Feb-16 11:30N 23°43' W 075°57'  
Track history (hours):
 
Tides and Currents Weather Stations Pressure Air Temp Water Temp Dewpoint Dewpoint Depression Visibility Wind Speed Wind Dir Waves Ship Positions

Seaexpressii

Last reported at 2018-Feb-25 23:30 UTC. Time now 2018-Feb-25 23:33 UTC.
Position N 26°04' W 080°08'.

Length 37 m; draft 2.1 m.

Type: Cargo ship. MMSI: 356449000.

Date/timePositionNaut miles runAvg speedWind from/ knotsBaromVisibWave heightAir tempDewpointWater temp
2018-Feb-25 23:30N 26°04' W 080°08'0 0.0
2018-Feb-25 23:01N 26°04' W 080°08'0 0.0
2018-Feb-25 22:30N 26°04' W 080°08'0 0.0
2018-Feb-25 22:00N 26°04' W 080°08'0 0.0
2018-Feb-25 21:30N 26°04' W 080°08'0 0.0
2018-Feb-25 21:00N 26°04' W 080°08'0 0.0
2018-Feb-25 20:30N 26°04' W 080°08'0 0.0
2018-Feb-25 20:00N 26°04' W 080°08'0 0.0
2018-Feb-25 19:30N 26°04' W 080°08'0 0.0
2018-Feb-25 19:01N 26°04' W 080°08'0 0.0
2018-Feb-25 18:30N 26°04' W 080°08'0 0.0
2018-Feb-25 18:00N 26°04' W 080°08'0 0.0
2018-Feb-25 17:31N 26°04' W 080°08'0 0.0
2018-Feb-25 17:00N 26°04' W 080°08'0 0.1
2018-Feb-25 16:30N 26°04' W 080°08'0 0.0
2018-Feb-25 16:00N 26°04' W 080°08'0 0.0
2018-Feb-25 15:31N 26°04' W 080°08'0 0.0
2018-Feb-25 15:00N 26°04' W 080°08'0 0.0
2018-Feb-25 14:31N 26°04' W 080°08'0 0.0
2018-Feb-25 14:00N 26°04' W 080°08'3 5.3
2018-Feb-25 13:30N 26°06' W 080°06'510.8
2018-Feb-25 13:00N 26°03' W 080°01'611.3
2018-Feb-25 12:30N 26°01' W 079°55'611.1
2018-Feb-25 12:00N 25°59' W 079°49'610.7
2018-Feb-25 11:29N 25°57' W 079°43'  
2018-Feb-22 21:51N 26°21' W 079°46'411.8
2018-Feb-22 21:30N 26°18' W 079°49'611.9
2018-Feb-22 21:00N 26°14' W 079°54'611.5
2018-Feb-22 20:30N 26°11' W 079°58'510.7
2018-Feb-22 20:00N 26°07' W 080°03'4 8.1
2018-Feb-22 19:30N 26°05' W 080°07'2 3.3
2018-Feb-22 19:00N 26°04' W 080°08'0 0.0
2018-Feb-22 18:30N 26°04' W 080°08'0 0.0
2018-Feb-22 18:00N 26°04' W 080°08'0 0.0
2018-Feb-22 17:30N 26°04' W 080°08'0 0.0
2018-Feb-22 17:00N 26°04' W 080°08'0 0.0
2018-Feb-22 16:30N 26°04' W 080°08'0 0.0
2018-Feb-22 16:00N 26°04' W 080°08'0 0.0
2018-Feb-22 15:30N 26°04' W 080°08'0 0.0
2018-Feb-22 15:00N 26°04' W 080°08'0 0.0
2018-Feb-22 14:30N 26°04' W 080°08'0 0.0
2018-Feb-22 14:01N 26°04' W 080°08'0 0.0
2018-Feb-22 13:31N 26°04' W 080°08'0 0.0
2018-Feb-22 13:00N 26°04' W 080°08'0 0.0
2018-Feb-22 12:30N 26°04' W 080°08'0 0.0
2018-Feb-22 12:01N 26°04' W 080°08'0 0.0
2018-Feb-22 11:30N 26°04' W 080°08'0 0.3
2018-Feb-22 11:01N 26°04' W 080°08'3 6.1
2018-Feb-22 10:30N 26°05' W 080°05'510.6
2018-Feb-22 10:00N 26°03' W 079°59'510.2
2018-Feb-22 09:30N 26°02' W 079°54'510.2
2018-Feb-22 09:00N 26°01' W 079°48'510.4
2018-Feb-22 08:29N 25°59' W 079°43'190 7.5
2018-Feb-21 07:09N 24°20' W 076°44'1 9.6
2018-Feb-21 06:59N 24°19' W 076°43'5 9.5
2018-Feb-21 06:30N 24°17' W 076°38'4 8.7
2018-Feb-21 06:00N 24°17' W 076°33'4 8.6
2018-Feb-21 05:30N 24°17' W 076°28'4 8.6
2018-Feb-21 05:00N 24°14' W 076°26'4 8.4
2018-Feb-21 04:30N 24°11' W 076°23'4 8.3
2018-Feb-21 04:00N 24°07' W 076°20'4 8.6
2018-Feb-21 03:30N 24°04' W 076°17'4 8.9
2018-Feb-21 03:00N 24°01' W 076°13'18 0.6
2018-Feb-19 21:51N 24°18' W 076°21'3 8.4
2018-Feb-19 21:30N 24°18' W 076°24'4 8.4
2018-Feb-19 21:00N 24°18' W 076°29'4 8.7
2018-Feb-19 20:30N 24°17' W 076°34'4 8.6
2018-Feb-19 20:00N 24°18' W 076°38'5 9.0
2018-Feb-19 19:30N 24°19' W 076°43'184 9.0
2018-Feb-18 23:11N 25°55' W 079°36'2 9.1
2018-Feb-18 22:59N 25°56' W 079°38'4 9.2
2018-Feb-18 22:30N 25°57' W 079°43'4 8.6
2018-Feb-18 22:00N 25°58' W 079°47'4 8.0
2018-Feb-18 21:30N 25°59' W 079°51'4 8.4
2018-Feb-18 21:00N 26°01' W 079°56'4 8.7
2018-Feb-18 20:30N 26°02' W 080°00'5 9.9
2018-Feb-18 20:00N 26°05' W 080°05'3 5.6
2018-Feb-18 19:31N 26°04' W 080°07'0 0.7
2018-Feb-18 19:01N 26°04' W 080°08'0 0.0
2018-Feb-18 18:30N 26°04' W 080°08'0 0.1
2018-Feb-18 18:00N 26°04' W 080°08'0 0.0
2018-Feb-18 17:30N 26°04' W 080°08'0 0.0
2018-Feb-18 17:01N 26°04' W 080°08'0 0.0
2018-Feb-18 16:30N 26°04' W 080°08'0 0.0
2018-Feb-18 16:00N 26°04' W 080°08'0 0.0
2018-Feb-18 15:30N 26°04' W 080°08'0 0.0
2018-Feb-18 15:00N 26°04' W 080°08'0 0.0
2018-Feb-18 14:31N 26°04' W 080°08'0 0.0
2018-Feb-18 14:01N 26°04' W 080°08'0 0.0
2018-Feb-18 13:30N 26°04' W 080°08'0 0.0
2018-Feb-18 13:01N 26°04' W 080°08'0 0.0
2018-Feb-18 12:30N 26°04' W 080°08'1 2.9
2018-Feb-18 12:00N 26°05' W 080°07'3 5.0
2018-Feb-18 11:30N 26°05' W 080°04'5 9.1
2018-Feb-18 11:00N 26°03' W 079°59'4 8.5
2018-Feb-18 10:30N 26°03' W 079°55'4 8.2
2018-Feb-18 10:00N 26°01' W 079°50'4 8.4
2018-Feb-18 09:30N 26°00' W 079°46'245 6.3
2018-Feb-16 18:49N 23°46' W 075°59'310.8
2018-Feb-16 18:30N 23°44' W 075°57'811.2
2018-Feb-16 17:45N 23°37' W 075°51'311.3
2018-Feb-16 17:30N 23°35' W 075°49'4 7.9
2018-Feb-16 17:00N 23°32' W 075°47'2 3.1
2018-Feb-16 16:30N 23°30' W 075°46'0 0.0
2018-Feb-16 16:00N 23°30' W 075°46'0 0.0
2018-Feb-16 15:30N 23°30' W 075°46'0 0.0
2018-Feb-16 15:00N 23°30' W 075°46'0 0.0
2018-Feb-16 14:30N 23°30' W 075°46'0 0.0
2018-Feb-16 14:00N 23°30' W 075°46'2 3.6
2018-Feb-16 13:30N 23°32' W 075°47'3 6.3
2018-Feb-16 13:00N 23°35' W 075°49'4 7.6
2018-Feb-16 12:30N 23°38' W 075°52'4 7.3
2018-Feb-16 12:00N 23°40' W 075°54'4 7.5
2018-Feb-16 11:30N 23°43' W 075°57'  

Dump ship's entire track history